createdAt,value
2019-02-02T00:00:54.774Z,0.60
2019-02-02T00:03:23.669Z,0.70
2019-02-02T00:05:52.684Z,0.70
2019-02-02T00:08:21.699Z,0.70
2019-02-02T00:10:51.014Z,0.70
2019-02-02T00:13:19.932Z,0.70
2019-02-02T00:15:48.839Z,0.70
2019-02-02T00:18:18.019Z,0.60
2019-02-02T00:20:47.003Z,0.60
2019-02-02T00:23:16.019Z,0.60
2019-02-02T00:25:45.085Z,0.60
2019-02-02T00:28:13.946Z,0.60
2019-02-02T00:30:42.976Z,0.60
2019-02-02T00:33:12.196Z,0.60
2019-02-02T00:35:41.256Z,0.60
2019-02-02T00:38:10.185Z,0.70
2019-02-02T00:40:39.140Z,0.70
2019-02-02T00:43:08.404Z,0.70
2019-02-02T00:45:37.394Z,0.80
2019-02-02T00:48:06.716Z,0.80
2019-02-02T00:50:35.732Z,0.90
2019-02-02T00:53:05.017Z,0.90
2019-02-02T00:55:33.996Z,0.90
2019-02-02T00:58:02.943Z,0.90
2019-02-02T01:00:31.944Z,1.00
2019-02-02T01:03:00.921Z,1.00
2019-02-02T01:05:29.975Z,1.00
2019-02-02T01:07:58.920Z,1.00
2019-02-02T01:10:30.195Z,1.00
2019-02-02T01:12:59.267Z,1.10
2019-02-02T01:15:28.378Z,1.10
2019-02-02T01:17:57.470Z,1.10
2019-02-02T01:20:26.422Z,1.10
2019-02-02T01:22:55.461Z,1.10
2019-02-02T01:25:24.395Z,1.10
2019-02-02T01:28:04.459Z,1.10
2019-02-02T01:30:25.234Z,1.20
2019-02-02T01:32:54.235Z,1.10
2019-02-02T01:35:23.251Z,1.20
2019-02-02T01:37:52.216Z,1.20
2019-02-02T01:40:21.408Z,1.20
2019-02-02T01:42:50.411Z,1.20
2019-02-02T01:45:22.187Z,1.20
2019-02-02T01:47:51.186Z,1.20
2019-02-02T01:50:21.791Z,1.20
2019-02-02T01:52:50.712Z,1.20
2019-02-02T01:55:19.911Z,1.20
2019-02-02T01:57:48.959Z,1.20
2019-02-02T02:00:20.959Z,1.30
2019-02-02T02:02:49.843Z,1.20
2019-02-02T02:05:18.721Z,1.20
2019-02-02T02:07:47.768Z,1.30
2019-02-02T02:10:17.238Z,1.20
2019-02-02T02:12:46.111Z,1.20
2019-02-02T02:15:16.021Z,1.20
2019-02-02T02:17:45.189Z,1.20
2019-02-02T02:20:15.059Z,1.20
2019-02-02T02:22:44.343Z,1.20
2019-02-02T02:25:15.011Z,1.20
2019-02-02T02:27:43.896Z,1.20
2019-02-02T02:30:18.545Z,1.20
2019-02-02T02:32:47.863Z,1.20
2019-02-02T02:35:16.917Z,1.20
2019-02-02T02:37:46.291Z,1.20
2019-02-02T02:40:17.405Z,1.10
2019-02-02T02:42:46.343Z,1.10
2019-02-02T02:45:15.525Z,1.10
2019-02-02T02:47:44.370Z,1.10
2019-02-02T02:50:14.955Z,1.10
2019-02-02T02:52:43.841Z,1.10
2019-02-02T02:55:13.650Z,1.10
2019-02-02T02:57:42.689Z,1.10
2019-02-02T03:00:25.580Z,1.10
2019-02-02T03:02:54.553Z,1.20
2019-02-02T03:05:23.882Z,1.20
2019-02-02T03:07:53.076Z,1.20
2019-02-02T03:10:22.963Z,1.20
2019-02-02T03:12:52.208Z,1.20
2019-02-02T03:15:21.234Z,1.20
2019-02-02T03:17:50.307Z,1.20
2019-02-02T03:20:19.360Z,1.20
2019-02-02T03:22:48.303Z,1.30
2019-02-02T03:25:19.171Z,1.30
2019-02-02T03:27:48.120Z,1.30
2019-02-02T03:30:18.224Z,1.30
2019-02-02T03:32:47.088Z,1.30
2019-02-02T03:35:17.515Z,1.40
2019-02-02T03:37:46.398Z,1.30
2019-02-02T03:40:17.233Z,1.40
2019-02-02T03:42:46.247Z,1.40
2019-02-02T03:45:16.966Z,1.40
2019-02-02T03:47:45.839Z,1.40
2019-02-02T03:50:14.909Z,1.40
2019-02-02T03:52:43.852Z,1.40
2019-02-02T03:55:13.436Z,1.40
2019-02-02T03:57:42.356Z,1.40
2019-02-02T04:00:18.821Z,1.40
2019-02-02T04:02:47.700Z,1.40
2019-02-02T04:05:21.886Z,1.40
2019-02-02T04:07:50.761Z,1.40
2019-02-02T04:10:19.674Z,1.40
2019-02-02T04:12:48.543Z,1.40
2019-02-02T04:15:18.260Z,1.40
2019-02-02T04:17:47.453Z,1.40
2019-02-02T04:20:18.154Z,1.50
2019-02-02T04:22:47.108Z,1.40
2019-02-02T04:25:17.381Z,1.40
2019-02-02T04:27:46.257Z,1.40
2019-02-02T04:30:17.481Z,1.40
2019-02-02T04:32:46.443Z,1.40
2019-02-02T04:35:15.355Z,1.50
2019-02-02T04:37:44.288Z,1.50
2019-02-02T04:40:13.599Z,1.50
2019-02-02T04:42:42.472Z,1.50
2019-02-02T04:45:12.039Z,1.50
2019-02-02T04:47:40.958Z,1.50
2019-02-02T04:50:12.087Z,1.50
2019-02-02T04:52:41.022Z,1.50
2019-02-02T04:55:10.658Z,1.50
2019-02-02T04:57:39.527Z,1.50
2019-02-02T05:00:11.660Z,1.50
2019-02-02T05:02:40.535Z,1.50
2019-02-02T05:05:11.444Z,1.60
2019-02-02T05:07:40.240Z,1.60
2019-02-02T05:10:10.823Z,1.50
2019-02-02T05:12:39.615Z,1.50
2019-02-02T05:15:08.731Z,1.60
2019-02-02T05:17:37.606Z,1.60
2019-02-02T05:20:07.067Z,1.60
2019-02-02T05:22:35.872Z,1.50
2019-02-02T05:25:06.390Z,1.50
2019-02-02T05:27:35.266Z,1.50
2019-02-02T05:30:05.420Z,1.50
2019-02-02T05:32:34.252Z,1.50
2019-02-02T05:35:03.026Z,1.50
2019-02-02T05:37:32.070Z,1.50
2019-02-02T05:40:00.871Z,1.50
2019-02-02T05:42:29.643Z,1.50
2019-02-02T05:44:58.683Z,1.50
2019-02-02T05:47:27.722Z,1.50
2019-02-02T05:49:56.536Z,1.50
2019-02-02T05:52:25.314Z,1.50
2019-02-02T05:54:54.346Z,1.50
2019-02-02T05:57:23.503Z,1.50
2019-02-02T05:59:53.100Z,1.50
2019-02-02T06:02:22.135Z,1.50
2019-02-02T06:04:50.924Z,1.50
2019-02-02T06:07:19.819Z,1.50
2019-02-02T06:09:48.662Z,1.60
2019-02-02T06:12:17.747Z,1.60
2019-02-02T06:14:46.631Z,1.60
2019-02-02T06:17:15.440Z,1.60
2019-02-02T06:19:44.472Z,1.50
2019-02-02T06:22:13.242Z,1.50
2019-02-02T06:24:42.291Z,1.50
2019-02-02T06:27:11.096Z,1.50
2019-02-02T06:29:39.888Z,1.50
2019-02-02T06:32:11.816Z,1.50
2019-02-02T06:34:40.747Z,1.50
2019-02-02T06:37:09.471Z,1.50
2019-02-02T06:39:38.273Z,1.50
2019-02-02T06:42:07.123Z,1.50
2019-02-02T06:44:35.911Z,1.50
2019-02-02T06:47:04.754Z,1.50
2019-02-02T06:49:33.547Z,1.50
2019-02-02T06:52:02.394Z,1.50
2019-02-02T06:54:33.844Z,1.50
2019-02-02T06:57:02.080Z,1.50
2019-02-02T06:59:30.822Z,1.60
2019-02-02T07:02:00.650Z,1.60
2019-02-02T07:04:29.438Z,1.60
2019-02-02T07:06:58.395Z,1.60
2019-02-02T07:09:28.270Z,1.60
2019-02-02T07:11:57.404Z,1.60
2019-02-02T07:14:27.112Z,1.60
2019-02-02T07:16:55.890Z,1.60
2019-02-02T07:19:24.675Z,1.60
2019-02-02T07:21:53.599Z,1.60
2019-02-02T07:24:22.390Z,1.60
2019-02-02T07:26:51.249Z,1.60
2019-02-02T07:29:20.179Z,1.60
2019-02-02T07:31:49.079Z,1.60
2019-02-02T07:34:18.053Z,1.60
2019-02-02T07:36:46.963Z,1.60
2019-02-02T07:39:15.807Z,1.60
2019-02-02T07:41:44.591Z,1.60
2019-02-02T07:44:13.564Z,1.60
2019-02-02T07:46:42.410Z,1.60
2019-02-02T07:49:11.804Z,1.60
2019-02-02T07:51:40.979Z,1.60
2019-02-02T07:54:09.855Z,1.60
2019-02-02T07:56:38.671Z,1.70
2019-02-02T07:59:07.460Z,1.70
2019-02-02T08:01:36.638Z,1.70
2019-02-02T08:04:05.893Z,1.80
2019-02-02T08:06:34.688Z,1.80
2019-02-02T08:09:05.009Z,1.80
2019-02-02T08:11:33.908Z,1.80
2019-02-02T08:14:21.912Z,1.90
2019-02-02T08:16:52.638Z,1.90
2019-02-02T08:19:21.315Z,2.00
2019-02-02T08:21:50.386Z,2.00
2019-02-02T08:24:19.187Z,2.10
2019-02-02T08:26:48.038Z,2.10
2019-02-02T08:29:16.979Z,2.10
2019-02-02T08:31:46.061Z,2.20
2019-02-02T08:34:14.916Z,2.30
2019-02-02T08:36:43.722Z,2.40
2019-02-02T08:39:12.523Z,2.40
2019-02-02T08:41:41.343Z,2.50
2019-02-02T08:44:10.476Z,2.50
2019-02-02T08:46:39.384Z,2.60
2019-02-02T08:49:08.261Z,2.60
2019-02-02T08:51:37.058Z,2.60
2019-02-02T08:54:06.010Z,2.70
2019-02-02T08:56:34.816Z,2.80
2019-02-02T08:59:03.668Z,2.80
2019-02-02T09:01:32.712Z,2.90
2019-02-02T09:04:01.524Z,2.90
2019-02-02T09:06:38.718Z,2.90
2019-02-02T09:09:01.254Z,2.90
2019-02-02T09:11:30.039Z,2.90
2019-02-02T09:13:58.851Z,3.00
2019-02-02T09:16:27.656Z,3.00
2019-02-02T09:18:56.482Z,3.00
2019-02-02T09:21:25.403Z,3.00
2019-02-02T09:23:54.551Z,3.00
2019-02-02T09:26:23.338Z,3.10
2019-02-02T09:28:52.169Z,3.10
2019-02-02T09:31:21.025Z,3.10
2019-02-02T09:33:50.195Z,3.20
2019-02-02T09:36:19.046Z,3.20
2019-02-02T09:38:47.846Z,3.20
2019-02-02T09:41:16.632Z,3.10
2019-02-02T09:43:45.502Z,3.10
2019-02-02T09:46:14.369Z,3.10
2019-02-02T09:48:43.243Z,3.00
2019-02-02T09:51:12.082Z,3.10
2019-02-02T09:53:40.892Z,3.10
2019-02-02T09:56:09.668Z,3.10
2019-02-02T09:58:38.559Z,3.10
2019-02-02T10:01:07.435Z,3.20
2019-02-02T10:03:36.225Z,3.30
2019-02-02T10:06:05.415Z,3.40
2019-02-02T10:08:34.182Z,3.60
2019-02-02T10:11:02.992Z,3.70
2019-02-02T10:13:31.841Z,3.90
2019-02-02T10:16:01.039Z,4.10
2019-02-02T10:18:29.888Z,4.20
2019-02-02T10:21:03.996Z,4.30
2019-02-02T10:23:29.261Z,4.40
2019-02-02T10:25:58.126Z,4.50
2019-02-02T10:28:26.972Z,4.60
2019-02-02T10:30:55.858Z,4.70
2019-02-02T10:33:24.641Z,4.70
2019-02-02T10:35:53.430Z,4.70
2019-02-02T10:38:22.266Z,4.70
2019-02-02T10:40:51.195Z,4.70
2019-02-02T10:43:19.984Z,4.70
2019-02-02T10:45:48.881Z,4.60
2019-02-02T10:48:17.972Z,4.70
2019-02-02T10:50:47.178Z,4.60
2019-02-02T10:53:15.956Z,4.50
2019-02-02T10:55:44.879Z,4.50
2019-02-02T10:58:13.723Z,4.50
2019-02-02T11:00:42.671Z,4.50
2019-02-02T11:03:12.527Z,4.40
2019-02-02T11:05:41.516Z,4.40
2019-02-02T11:08:10.593Z,4.30
2019-02-02T11:10:39.803Z,4.30
2019-02-02T11:13:09.085Z,4.20
2019-02-02T11:15:38.131Z,4.10
2019-02-02T11:18:07.742Z,4.00
2019-02-02T11:20:36.946Z,4.00
2019-02-02T11:23:06.045Z,4.00
2019-02-02T11:25:35.035Z,4.00
2019-02-02T11:28:04.266Z,4.00
2019-02-02T11:30:33.611Z,4.10
2019-02-02T11:33:02.391Z,4.10
2019-02-02T11:35:31.260Z,4.10
2019-02-02T11:38:00.339Z,4.20
2019-02-02T11:40:33.312Z,4.30
2019-02-02T11:43:02.339Z,4.30
2019-02-02T11:45:31.224Z,4.40
2019-02-02T11:48:00.148Z,4.50
2019-02-02T11:50:29.095Z,4.60
2019-02-02T11:52:58.065Z,4.80
2019-02-02T11:55:27.077Z,4.80
2019-02-02T11:57:55.938Z,4.90
2019-02-02T12:00:27.059Z,4.90
2019-02-02T12:02:56.219Z,4.90
2019-02-02T12:05:25.258Z,4.90
2019-02-02T12:07:54.199Z,4.90
2019-02-02T12:10:24.377Z,4.90
2019-02-02T12:12:53.312Z,5.00
2019-02-02T12:15:22.255Z,5.00
2019-02-02T12:17:51.114Z,5.00
2019-02-02T12:20:20.046Z,5.10
2019-02-02T12:22:48.919Z,5.10
2019-02-02T12:25:17.855Z,5.00
2019-02-02T12:27:46.999Z,4.90
2019-02-02T12:30:18.186Z,4.90
2019-02-02T12:32:47.312Z,4.80
2019-02-02T12:35:18.395Z,4.80
2019-02-02T12:37:47.259Z,4.70
2019-02-02T12:40:16.258Z,4.70
2019-02-02T12:42:45.175Z,4.60
2019-02-02T12:45:17.078Z,4.60
2019-02-02T12:47:45.963Z,4.70
2019-02-02T12:50:14.999Z,4.50
2019-02-02T12:52:43.958Z,4.50
2019-02-02T12:55:12.888Z,4.40
2019-02-02T12:57:41.895Z,4.30
2019-02-02T13:00:17.854Z,4.30
2019-02-02T13:02:46.939Z,4.30
2019-02-02T13:05:17.114Z,4.30
2019-02-02T13:07:46.180Z,4.20
2019-02-02T13:10:18.315Z,4.20
2019-02-02T13:12:47.268Z,4.10
2019-02-02T13:15:16.376Z,4.00
2019-02-02T13:17:45.323Z,4.00
2019-02-02T13:20:14.341Z,3.90
2019-02-02T13:22:43.250Z,3.80
2019-02-02T13:25:14.026Z,3.80
2019-02-02T13:27:42.958Z,3.70
2019-02-02T13:30:26.816Z,3.70
2019-02-02T13:32:55.778Z,3.70
2019-02-02T13:35:24.863Z,3.70
2019-02-02T13:37:53.871Z,3.70
2019-02-02T13:40:22.935Z,3.70
2019-02-02T13:42:51.727Z,3.70
2019-02-02T13:45:21.279Z,3.80
2019-02-02T13:47:50.307Z,3.90
2019-02-02T13:50:19.522Z,4.00
2019-02-02T13:52:48.819Z,4.10
2019-02-02T13:55:17.671Z,4.10
2019-02-02T13:57:46.548Z,4.10
2019-02-02T14:00:33.563Z,4.00
2019-02-02T14:03:03.701Z,4.00
2019-02-02T14:05:32.837Z,3.90
2019-02-02T14:08:01.938Z,3.80
2019-02-02T14:10:31.802Z,3.70
2019-02-02T14:13:06.969Z,3.60
2019-02-02T14:15:39.012Z,3.60
2019-02-02T14:18:06.666Z,3.70
2019-02-02T14:20:35.479Z,3.70
2019-02-02T14:23:04.418Z,3.70
2019-02-02T14:25:33.283Z,3.70
2019-02-02T14:28:02.163Z,3.70
2019-02-02T14:30:31.090Z,3.70
2019-02-02T14:32:59.962Z,3.70
2019-02-02T14:35:29.104Z,3.70
2019-02-02T14:37:57.976Z,3.70
2019-02-02T14:40:26.851Z,3.60
2019-02-02T14:42:55.719Z,3.60
2019-02-02T14:45:27.439Z,3.50
2019-02-02T14:47:56.133Z,3.50
2019-02-02T14:50:25.542Z,3.40
2019-02-02T14:52:54.601Z,3.40
2019-02-02T14:55:25.382Z,3.40
2019-02-02T14:57:54.586Z,3.40
2019-02-02T15:00:25.401Z,3.40
2019-02-02T15:02:54.384Z,3.50
2019-02-02T15:05:23.467Z,3.40
2019-02-02T15:07:52.372Z,3.40
2019-02-02T15:10:22.272Z,3.40
2019-02-02T15:12:51.351Z,3.40
2019-02-02T15:15:20.283Z,3.30
2019-02-02T15:17:49.300Z,3.40
2019-02-02T15:20:23.435Z,3.30
2019-02-02T15:22:52.474Z,3.30
2019-02-02T15:25:21.371Z,3.30
2019-02-02T15:27:50.243Z,3.20
2019-02-02T15:30:19.703Z,3.20
2019-02-02T15:32:48.545Z,3.20
2019-02-02T15:35:17.680Z,3.20
2019-02-02T15:37:46.483Z,3.20
2019-02-02T15:40:16.595Z,3.10
2019-02-02T15:42:45.494Z,3.10
2019-02-02T15:45:16.305Z,3.10
2019-02-02T15:47:45.167Z,3.10
2019-02-02T15:50:15.099Z,3.10
2019-02-02T15:52:44.113Z,3.10
2019-02-02T15:55:15.237Z,3.10
2019-02-02T15:57:44.219Z,3.10
2019-02-02T16:00:18.930Z,3.00
2019-02-02T16:02:47.715Z,3.00
2019-02-02T16:05:16.794Z,2.90
2019-02-02T16:07:45.985Z,2.90
2019-02-02T16:10:20.547Z,2.80
2019-02-02T16:12:49.626Z,2.80
2019-02-02T16:15:18.571Z,2.70
2019-02-02T16:17:47.498Z,2.70
2019-02-02T16:20:24.710Z,2.70
2019-02-02T16:22:53.596Z,2.70
2019-02-02T16:25:22.405Z,2.60
2019-02-02T16:27:51.184Z,2.60
2019-02-02T16:30:22.103Z,2.60
2019-02-02T16:32:50.871Z,2.60
2019-02-02T16:35:20.067Z,2.60
2019-02-02T16:37:48.902Z,2.60
2019-02-02T16:40:19.747Z,2.60
2019-02-02T16:42:48.681Z,2.70
2019-02-02T16:45:19.266Z,2.60
2019-02-02T16:47:48.384Z,2.60
2019-02-02T16:50:17.691Z,2.60
2019-02-02T16:52:46.642Z,2.50
2019-02-02T16:55:15.826Z,2.50
2019-02-02T16:57:44.812Z,2.50
2019-02-02T17:00:16.362Z,2.50
2019-02-02T17:02:45.291Z,2.40
2019-02-02T17:05:14.329Z,2.40
2019-02-02T17:07:46.138Z,2.40
2019-02-02T17:10:18.840Z,2.40
2019-02-02T17:12:48.837Z,2.40
2019-02-02T17:15:17.702Z,2.40
2019-02-02T17:17:46.884Z,2.30
2019-02-02T17:20:17.919Z,2.30
2019-02-02T17:22:46.787Z,2.30
2019-02-02T17:25:17.015Z,2.30
2019-02-02T17:27:45.879Z,2.30
2019-02-02T17:30:19.587Z,2.30
2019-02-02T17:32:49.118Z,2.30
2019-02-02T17:35:18.304Z,2.30
2019-02-02T17:37:47.228Z,2.30
2019-02-02T17:40:18.259Z,2.30
2019-02-02T17:42:47.191Z,2.30
2019-02-02T17:45:16.930Z,2.30
2019-02-02T17:47:45.814Z,2.30
2019-02-02T17:50:16.604Z,2.30
2019-02-02T17:52:45.433Z,2.30
2019-02-02T17:55:14.416Z,2.30
2019-02-02T17:57:43.375Z,2.30
2019-02-02T18:00:28.379Z,2.30
2019-02-02T18:02:57.172Z,2.20
2019-02-02T18:05:26.216Z,2.20
2019-02-02T18:07:55.071Z,2.20
2019-02-02T18:10:24.155Z,2.20
2019-02-02T18:12:52.951Z,2.20
2019-02-02T18:15:21.984Z,2.20
2019-02-02T18:17:50.772Z,2.20
2019-02-02T18:20:19.878Z,2.20
2019-02-02T18:22:48.737Z,2.20
2019-02-02T18:25:17.606Z,2.20
2019-02-02T18:27:46.688Z,2.20
2019-02-02T18:30:17.693Z,2.20
2019-02-02T18:32:46.634Z,2.20
2019-02-02T18:35:15.792Z,2.20
2019-02-02T18:37:44.748Z,2.20
2019-02-02T18:40:15.279Z,2.20
2019-02-02T18:42:44.419Z,2.20
2019-02-02T18:45:16.177Z,2.10
2019-02-02T18:47:45.435Z,2.10
2019-02-02T18:50:15.331Z,2.10
2019-02-02T18:52:44.437Z,2.10
2019-02-02T18:55:16.390Z,2.10
2019-02-02T18:57:45.290Z,2.10
2019-02-02T19:00:16.918Z,2.10
2019-02-02T19:02:45.993Z,2.10
2019-02-02T19:05:15.352Z,2.10
2019-02-02T19:07:44.261Z,2.10
2019-02-02T19:10:15.935Z,2.10
2019-02-02T19:12:44.846Z,2.10
2019-02-02T19:15:14.053Z,2.10
2019-02-02T19:17:42.870Z,2.10
2019-02-02T19:20:14.766Z,2.10
2019-02-02T19:22:43.803Z,2.10
2019-02-02T19:25:12.744Z,2.10
2019-02-02T19:27:41.923Z,2.10
2019-02-02T19:30:17.222Z,2.10
2019-02-02T19:32:46.014Z,2.10
2019-02-02T19:35:16.495Z,2.10
2019-02-02T19:37:45.947Z,2.10
2019-02-02T19:40:15.127Z,2.10
2019-02-02T19:42:44.176Z,2.00
2019-02-02T19:45:14.883Z,2.10
2019-02-02T19:47:43.834Z,2.00
2019-02-02T19:50:15.673Z,2.00
2019-02-02T19:52:44.535Z,2.00
2019-02-02T19:55:14.989Z,2.00
2019-02-02T19:57:44.419Z,1.90
2019-02-02T20:00:16.387Z,1.90
2019-02-02T20:02:45.286Z,1.90
2019-02-02T20:05:14.404Z,1.90
2019-02-02T20:07:43.215Z,1.90
2019-02-02T20:10:14.072Z,1.90
2019-02-02T20:12:43.143Z,1.90
2019-02-02T20:15:15.071Z,1.90
2019-02-02T20:17:45.815Z,1.90
2019-02-02T20:20:19.075Z,1.90
2019-02-02T20:22:48.559Z,1.90
2019-02-02T20:25:17.698Z,1.90
2019-02-02T20:27:46.490Z,1.90
2019-02-02T20:30:20.229Z,1.90
2019-02-02T20:32:49.098Z,1.90
2019-02-02T20:35:18.057Z,1.90
2019-02-02T20:37:47.402Z,1.90
2019-02-02T20:40:18.158Z,1.90
2019-02-02T20:42:47.428Z,1.90
2019-02-02T20:45:18.416Z,1.80
2019-02-02T20:47:47.406Z,1.80
2019-02-02T20:50:17.608Z,1.80
2019-02-02T20:52:47.830Z,1.80
2019-02-02T20:55:19.372Z,1.80
2019-02-02T20:57:48.887Z,1.70
2019-02-02T21:00:20.042Z,1.70
2019-02-02T21:02:48.983Z,1.70
2019-02-02T21:05:17.757Z,1.70
2019-02-02T21:07:46.627Z,1.70
2019-02-02T21:10:17.299Z,1.70
2019-02-02T21:12:46.259Z,1.70
2019-02-02T21:15:15.359Z,1.80
2019-02-02T21:17:44.542Z,1.70
2019-02-02T21:20:15.536Z,1.70
2019-02-02T21:22:44.484Z,1.70
2019-02-02T21:25:13.891Z,1.70
2019-02-02T21:27:42.684Z,1.70
2019-02-02T21:30:17.058Z,1.70
2019-02-02T21:32:45.838Z,1.70
2019-02-02T21:35:14.705Z,1.70
2019-02-02T21:37:43.571Z,1.60
2019-02-02T21:40:14.375Z,1.70
2019-02-02T21:42:43.492Z,1.70
2019-02-02T21:45:13.548Z,1.60
2019-02-02T21:47:42.584Z,1.60
2019-02-02T21:50:17.454Z,1.60
2019-02-02T21:52:46.415Z,1.50
2019-02-02T21:55:18.647Z,1.60
2019-02-02T21:57:47.504Z,1.60
2019-02-02T22:00:21.751Z,1.50
2019-02-02T22:02:50.872Z,1.50
2019-02-02T22:05:19.805Z,1.50
2019-02-02T22:07:48.755Z,1.50
2019-02-02T22:10:17.697Z,1.50
2019-02-02T22:12:47.895Z,1.50
2019-02-02T22:15:21.175Z,1.50
2019-02-02T22:17:50.034Z,1.50
2019-02-02T22:20:18.995Z,1.40
2019-02-02T22:22:47.999Z,1.40
2019-02-02T22:25:24.963Z,1.40
2019-02-02T22:27:53.923Z,1.40
2019-02-02T22:30:24.828Z,1.40
2019-02-02T22:32:53.701Z,1.40
2019-02-02T22:35:22.658Z,1.40
2019-02-02T22:37:51.580Z,1.40
2019-02-02T22:40:21.954Z,1.30
2019-02-02T22:42:50.758Z,1.20
2019-02-02T22:45:20.179Z,1.20
2019-02-02T22:47:49.733Z,1.20
2019-02-02T22:50:20.108Z,1.20
2019-02-02T22:52:49.311Z,1.20
2019-02-02T22:55:18.728Z,1.20
2019-02-02T22:57:47.661Z,1.10
2019-02-02T23:00:43.043Z,1.10
2019-02-02T23:03:14.800Z,1.10
2019-02-02T23:05:54.802Z,1.10
2019-02-02T23:09:01.316Z,1.10
2019-02-02T23:11:45.841Z,1.00
2019-02-02T23:14:46.595Z,1.00
2019-02-02T23:17:15.567Z,1.00
2019-02-02T23:19:44.408Z,1.00
2019-02-02T23:22:13.405Z,1.00
2019-02-02T23:24:42.300Z,1.00
2019-02-02T23:27:11.171Z,1.00
2019-02-02T23:29:39.965Z,1.00
2019-02-02T23:32:09.440Z,1.00
2019-02-02T23:34:38.320Z,1.00
2019-02-02T23:37:07.731Z,1.00
2019-02-02T23:39:36.563Z,1.00
2019-02-02T23:42:05.572Z,1.00
2019-02-02T23:44:34.691Z,0.90
2019-02-02T23:47:03.539Z,0.90
2019-02-02T23:49:32.411Z,0.90
2019-02-02T23:52:01.268Z,0.90
2019-02-02T23:54:30.075Z,0.90
2019-02-02T23:56:58.907Z,0.90
2019-02-02T23:59:27.710Z,0.90
